sensor_id;sensor_type;location;lat;lon;timestamp;P1;durP1;ratioP1;P2;durP2;ratioP2
41139;SDS011;26881;48.784;9.192;2023-09-18T00:03:22;4.55;;;3.10;;
41139;SDS011;26881;48.784;9.192;2023-09-18T00:08:46;6.00;;;3.03;;
41139;SDS011;26881;48.784;9.192;2023-09-18T00:14:09;5.43;;;3.00;;
41139;SDS011;26881;48.784;9.192;2023-09-18T00:19:31;5.07;;;3.10;;
41139;SDS011;26881;48.784;9.192;2023-09-18T00:24:55;6.43;;;3.00;;
41139;SDS011;26881;48.784;9.192;2023-09-18T00:30:16;5.95;;;2.92;;
41139;SDS011;26881;48.784;9.192;2023-09-18T00:35:38;6.05;;;2.78;;
41139;SDS011;26881;48.784;9.192;2023-09-18T00:41:00;2.70;;;2.50;;
41139;SDS011;26881;48.784;9.192;2023-09-18T00:46:22;5.07;;;2.80;;
41139;SDS011;26881;48.784;9.192;2023-09-18T00:51:45;4.72;;;3.17;;
41139;SDS011;26881;48.784;9.192;2023-09-18T00:57:09;4.38;;;2.72;;
41139;SDS011;26881;48.784;9.192;2023-09-18T01:02:31;3.45;;;2.92;;
41139;SDS011;26881;48.784;9.192;2023-09-18T01:07:54;3.88;;;2.75;;
41139;SDS011;26881;48.784;9.192;2023-09-18T01:13:18;4.30;;;2.65;;
41139;SDS011;26881;48.784;9.192;2023-09-18T01:18:48;2.80;;;2.60;;
41139;SDS011;26881;48.784;9.192;2023-09-18T01:24:12;8.35;;;3.90;;
41139;SDS011;26881;48.784;9.192;2023-09-18T01:29:33;7.32;;;3.47;;
41139;SDS011;26881;48.784;9.192;2023-09-18T01:34:56;3.72;;;3.33;;
41139;SDS011;26881;48.784;9.192;2023-09-18T01:40:21;3.45;;;2.90;;
41139;SDS011;26881;48.784;9.192;2023-09-18T01:45:44;5.78;;;3.28;;
41139;SDS011;26881;48.784;9.192;2023-09-18T01:51:07;5.40;;;3.20;;
41139;SDS011;26881;48.784;9.192;2023-09-18T01:56:29;3.78;;;2.25;;
41139;SDS011;26881;48.784;9.192;2023-09-18T02:01:51;3.17;;;2.40;;
41139;SDS011;26881;48.784;9.192;2023-09-18T02:07:15;6.70;;;2.80;;
41139;SDS011;26881;48.784;9.192;2023-09-18T02:12:38;11.27;;;3.13;;
41139;SDS011;26881;48.784;9.192;2023-09-18T02:18:01;9.65;;;3.25;;
41139;SDS011;26881;48.784;9.192;2023-09-18T02:23:23;8.90;;;3.40;;
41139;SDS011;26881;48.784;9.192;2023-09-18T02:28:45;17.42;;;3.33;;
41139;SDS011;26881;48.784;9.192;2023-09-18T02:34:07;6.45;;;2.85;;
41139;SDS011;26881;48.784;9.192;2023-09-18T02:39:30;13.18;;;3.45;;
41139;SDS011;26881;48.784;9.192;2023-09-18T02:44:52;10.52;;;2.78;;
41139;SDS011;26881;48.784;9.192;2023-09-18T02:50:14;7.88;;;2.90;;
41139;SDS011;26881;48.784;9.192;2023-09-18T02:55:36;12.60;;;3.50;;
41139;SDS011;26881;48.784;9.192;2023-09-18T03:00:58;14.00;;;2.83;;
41139;SDS011;26881;48.784;9.192;2023-09-18T03:06:21;15.30;;;2.97;;
41139;SDS011;26881;48.784;9.192;2023-09-18T03:11:42;15.20;;;2.97;;
41139;SDS011;26881;48.784;9.192;2023-09-18T03:17:05;11.25;;;3.15;;
41139;SDS011;26881;48.784;9.192;2023-09-18T03:22:27;17.45;;;3.60;;
41139;SDS011;26881;48.784;9.192;2023-09-18T03:27:50;13.35;;;4.00;;
41139;SDS011;26881;48.784;9.192;2023-09-18T03:33:13;12.30;;;3.53;;
41139;SDS011;26881;48.784;9.192;2023-09-18T03:38:36;13.80;;;3.22;;
41139;SDS011;26881;48.784;9.192;2023-09-18T03:43:58;10.82;;;2.92;;
41139;SDS011;26881;48.784;9.192;2023-09-18T03:49:20;12.77;;;3.50;;
41139;SDS011;26881;48.784;9.192;2023-09-18T03:54:42;13.48;;;3.95;;
41139;SDS011;26881;48.784;9.192;2023-09-18T04:00:04;9.35;;;2.75;;
41139;SDS011;26881;48.784;9.192;2023-09-18T04:05:28;9.57;;;3.08;;
41139;SDS011;26881;48.784;9.192;2023-09-18T04:10:50;7.78;;;3.50;;
41139;SDS011;26881;48.784;9.192;2023-09-18T04:16:12;9.73;;;2.70;;
41139;SDS011;26881;48.784;9.192;2023-09-18T04:21:38;10.38;;;3.08;;
41139;SDS011;26881;48.784;9.192;2023-09-18T04:27:00;14.07;;;3.75;;
41139;SDS011;26881;48.784;9.192;2023-09-18T04:32:22;13.55;;;3.42;;
41139;SDS011;26881;48.784;9.192;2023-09-18T04:37:44;9.75;;;3.30;;
41139;SDS011;26881;48.784;9.192;2023-09-18T04:43:06;13.30;;;4.05;;
41139;SDS011;26881;48.784;9.192;2023-09-18T04:48:28;10.57;;;3.33;;
41139;SDS011;26881;48.784;9.192;2023-09-18T04:53:51;14.40;;;4.13;;
41139;SDS011;26881;48.784;9.192;2023-09-18T04:59:13;8.43;;;2.85;;
41139;SDS011;26881;48.784;9.192;2023-09-18T05:04:36;8.48;;;3.08;;
41139;SDS011;26881;48.784;9.192;2023-09-18T05:09:58;14.45;;;3.33;;
41139;SDS011;26881;48.784;9.192;2023-09-18T05:15:20;7.82;;;2.55;;
41139;SDS011;26881;48.784;9.192;2023-09-18T05:20:41;11.48;;;2.85;;
41139;SDS011;26881;48.784;9.192;2023-09-18T05:26:03;12.45;;;2.90;;
41139;SDS011;26881;48.784;9.192;2023-09-18T05:31:26;10.75;;;2.92;;
41139;SDS011;26881;48.784;9.192;2023-09-18T05:36:48;10.82;;;2.83;;
41139;SDS011;26881;48.784;9.192;2023-09-18T05:42:10;11.73;;;2.92;;
41139;SDS011;26881;48.784;9.192;2023-09-18T05:47:35;8.40;;;2.88;;
41139;SDS011;26881;48.784;9.192;2023-09-18T05:52:57;9.40;;;2.45;;
41139;SDS011;26881;48.784;9.192;2023-09-18T05:58:26;9.38;;;2.97;;
41139;SDS011;26881;48.784;9.192;2023-09-18T06:09:15;8.73;;;2.90;;
41139;SDS011;26881;48.784;9.192;2023-09-18T06:14:37;8.65;;;2.42;;
41139;SDS011;26881;48.784;9.192;2023-09-18T06:19:59;8.73;;;2.67;;
41139;SDS011;26881;48.784;9.192;2023-09-18T06:25:21;8.55;;;3.13;;
41139;SDS011;26881;48.784;9.192;2023-09-18T06:30:43;8.85;;;3.03;;
41139;SDS011;26881;48.784;9.192;2023-09-18T06:36:05;12.23;;;4.00;;
41139;SDS011;26881;48.784;9.192;2023-09-18T06:41:27;11.73;;;3.58;;
41139;SDS011;26881;48.784;9.192;2023-09-18T06:46:49;10.85;;;3.90;;
41139;SDS011;26881;48.784;9.192;2023-09-18T06:52:11;8.50;;;3.40;;
41139;SDS011;26881;48.784;9.192;2023-09-18T06:57:34;7.63;;;2.92;;
41139;SDS011;26881;48.784;9.192;2023-09-18T07:02:56;8.57;;;2.90;;
41139;SDS011;26881;48.784;9.192;2023-09-18T07:08:19;8.18;;;2.80;;
41139;SDS011;26881;48.784;9.192;2023-09-18T07:13:47;6.07;;;2.35;;
41139;SDS011;26881;48.784;9.192;2023-09-18T07:19:09;8.48;;;1.98;;
41139;SDS011;26881;48.784;9.192;2023-09-18T07:24:38;9.18;;;1.92;;
41139;SDS011;26881;48.784;9.192;2023-09-18T07:30:02;7.70;;;2.63;;
41139;SDS011;26881;48.784;9.192;2023-09-18T07:35:26;7.78;;;2.17;;
41139;SDS011;26881;48.784;9.192;2023-09-18T07:40:48;7.28;;;1.80;;
41139;SDS011;26881;48.784;9.192;2023-09-18T07:46:10;4.22;;;1.45;;
41139;SDS011;26881;48.784;9.192;2023-09-18T07:51:32;5.70;;;1.52;;
41139;SDS011;26881;48.784;9.192;2023-09-18T07:56:54;3.60;;;1.63;;
41139;SDS011;26881;48.784;9.192;2023-09-18T08:02:15;5.10;;;1.98;;
41139;SDS011;26881;48.784;9.192;2023-09-18T08:07:39;5.15;;;1.50;;
41139;SDS011;26881;48.784;9.192;2023-09-18T08:13:02;3.42;;;1.48;;
41139;SDS011;26881;48.784;9.192;2023-09-18T08:18:24;4.70;;;1.52;;
41139;SDS011;26881;48.784;9.192;2023-09-18T08:23:48;6.05;;;1.80;;
41139;SDS011;26881;48.784;9.192;2023-09-18T08:29:10;4.20;;;1.40;;
41139;SDS011;26881;48.784;9.192;2023-09-18T08:34:32;2.80;;;1.08;;
41139;SDS011;26881;48.784;9.192;2023-09-18T08:39:54;5.85;;;1.30;;
41139;SDS011;26881;48.784;9.192;2023-09-18T08:45:22;4.00;;;1.38;;
41139;SDS011;26881;48.784;9.192;2023-09-18T08:50:57;2.92;;;1.00;;
41139;SDS011;26881;48.784;9.192;2023-09-18T08:56:19;5.32;;;1.73;;
41139;SDS011;26881;48.784;9.192;2023-09-18T09:01:43;3.30;;;1.20;;
41139;SDS011;26881;48.784;9.192;2023-09-18T09:07:04;2.05;;;0.93;;
41139;SDS011;26881;48.784;9.192;2023-09-18T09:12:46;4.65;;;1.50;;
41139;SDS011;26881;48.784;9.192;2023-09-18T09:18:18;3.53;;;1.30;;
41139;SDS011;26881;48.784;9.192;2023-09-18T09:23:45;2.03;;;0.90;;
41139;SDS011;26881;48.784;9.192;2023-09-18T09:29:15;2.00;;;1.00;;
41139;SDS011;26881;48.784;9.192;2023-09-18T09:34:40;4.35;;;1.15;;
41139;SDS011;26881;48.784;9.192;2023-09-18T09:40:03;3.55;;;1.30;;
41139;SDS011;26881;48.784;9.192;2023-09-18T09:45:31;2.70;;;1.70;;
41139;SDS011;26881;48.784;9.192;2023-09-18T09:50:58;1.88;;;1.10;;
41139;SDS011;26881;48.784;9.192;2023-09-18T09:56:21;3.45;;;1.30;;
41139;SDS011;26881;48.784;9.192;2023-09-18T10:01:47;4.00;;;1.58;;
41139;SDS011;26881;48.784;9.192;2023-09-18T10:07:12;4.63;;;1.27;;
41139;SDS011;26881;48.784;9.192;2023-09-18T10:12:34;4.40;;;1.70;;
41139;SDS011;26881;48.784;9.192;2023-09-18T10:17:57;4.03;;;1.50;;
41139;SDS011;26881;48.784;9.192;2023-09-18T10:23:25;4.15;;;1.92;;
41139;SDS011;26881;48.784;9.192;2023-09-18T10:29:02;5.35;;;2.20;;
41139;SDS011;26881;48.784;9.192;2023-09-18T10:34:27;3.60;;;1.65;;
41139;SDS011;26881;48.784;9.192;2023-09-18T10:39:51;2.53;;;1.60;;
41139;SDS011;26881;48.784;9.192;2023-09-18T10:45:14;4.50;;;1.55;;
41139;SDS011;26881;48.784;9.192;2023-09-18T10:50:37;3.60;;;1.55;;
41139;SDS011;26881;48.784;9.192;2023-09-18T10:56:01;4.43;;;1.65;;
41139;SDS011;26881;48.784;9.192;2023-09-18T11:01:27;2.17;;;1.08;;
41139;SDS011;26881;48.784;9.192;2023-09-18T11:12:16;4.85;;;1.70;;
41139;SDS011;26881;48.784;9.192;2023-09-18T11:17:39;2.47;;;1.73;;
41139;SDS011;26881;48.784;9.192;2023-09-18T11:28:36;2.75;;;1.17;;
41139;SDS011;26881;48.784;9.192;2023-09-18T11:34:01;1.98;;;1.15;;
41139;SDS011;26881;48.784;9.192;2023-09-18T11:44:56;4.07;;;1.45;;
41139;SDS011;26881;48.784;9.192;2023-09-18T11:50:20;2.72;;;1.20;;
41139;SDS011;26881;48.784;9.192;2023-09-18T11:55:43;2.95;;;1.35;;
41139;SDS011;26881;48.784;9.192;2023-09-18T12:01:05;3.08;;;1.23;;
41139;SDS011;26881;48.784;9.192;2023-09-18T12:06:34;2.53;;;1.20;;
41139;SDS011;26881;48.784;9.192;2023-09-18T12:11:58;2.92;;;1.23;;
41139;SDS011;26881;48.784;9.192;2023-09-18T12:17:25;3.05;;;1.35;;
41139;SDS011;26881;48.784;9.192;2023-09-18T12:22:47;6.50;;;1.17;;
41139;SDS011;26881;48.784;9.192;2023-09-18T12:28:11;2.80;;;1.17;;
41139;SDS011;26881;48.784;9.192;2023-09-18T12:33:36;2.65;;;1.40;;
41139;SDS011;26881;48.784;9.192;2023-09-18T12:39:00;1.73;;;1.60;;
41139;SDS011;26881;48.784;9.192;2023-09-18T12:44:22;2.90;;;1.40;;
41139;SDS011;26881;48.784;9.192;2023-09-18T12:49:45;3.33;;;1.30;;
41139;SDS011;26881;48.784;9.192;2023-09-18T12:55:08;4.38;;;1.40;;
41139;SDS011;26881;48.784;9.192;2023-09-18T13:00:46;2.05;;;1.13;;
41139;SDS011;26881;48.784;9.192;2023-09-18T13:06:12;2.97;;;1.10;;
41139;SDS011;26881;48.784;9.192;2023-09-18T13:11:51;3.45;;;1.70;;
41139;SDS011;26881;48.784;9.192;2023-09-18T13:17:14;2.58;;;1.15;;
41139;SDS011;26881;48.784;9.192;2023-09-18T13:22:36;2.28;;;1.17;;
41139;SDS011;26881;48.784;9.192;2023-09-18T13:27:58;2.33;;;1.20;;
41139;SDS011;26881;48.784;9.192;2023-09-18T13:33:20;3.20;;;1.23;;
41139;SDS011;26881;48.784;9.192;2023-09-18T13:38:42;2.75;;;1.08;;
41139;SDS011;26881;48.784;9.192;2023-09-18T13:44:06;4.88;;;0.90;;
41139;SDS011;26881;48.784;9.192;2023-09-18T13:49:29;3.22;;;1.00;;
41139;SDS011;26881;48.784;9.192;2023-09-18T13:54:50;1.50;;;1.08;;
41139;SDS011;26881;48.784;9.192;2023-09-18T14:00:13;4.00;;;1.20;;
41139;SDS011;26881;48.784;9.192;2023-09-18T14:05:35;2.75;;;1.10;;
41139;SDS011;26881;48.784;9.192;2023-09-18T14:10:57;1.38;;;1.08;;
41139;SDS011;26881;48.784;9.192;2023-09-18T14:16:20;1.63;;;0.80;;
41139;SDS011;26881;48.784;9.192;2023-09-18T14:21:42;1.33;;;1.20;;
41139;SDS011;26881;48.784;9.192;2023-09-18T14:27:04;2.88;;;1.30;;
41139;SDS011;26881;48.784;9.192;2023-09-18T14:32:28;2.88;;;1.25;;
41139;SDS011;26881;48.784;9.192;2023-09-18T14:37:50;3.00;;;1.30;;
41139;SDS011;26881;48.784;9.192;2023-09-18T14:43:12;4.40;;;1.23;;
41139;SDS011;26881;48.784;9.192;2023-09-18T14:48:34;3.13;;;1.08;;
41139;SDS011;26881;48.784;9.192;2023-09-18T14:53:57;4.60;;;0.88;;
41139;SDS011;26881;48.784;9.192;2023-09-18T14:59:19;2.50;;;0.95;;
41139;SDS011;26881;48.784;9.192;2023-09-18T15:05:00;4.13;;;1.23;;
41139;SDS011;26881;48.784;9.192;2023-09-18T15:10:23;2.45;;;1.13;;
41139;SDS011;26881;48.784;9.192;2023-09-18T15:15:45;3.25;;;1.10;;
41139;SDS011;26881;48.784;9.192;2023-09-18T15:21:07;2.92;;;1.10;;
41139;SDS011;26881;48.784;9.192;2023-09-18T15:26:29;2.30;;;1.13;;
41139;SDS011;26881;48.784;9.192;2023-09-18T15:31:51;3.33;;;1.08;;
41139;SDS011;26881;48.784;9.192;2023-09-18T15:37:12;1.88;;;1.20;;
41139;SDS011;26881;48.784;9.192;2023-09-18T15:42:36;4.38;;;1.80;;
41139;SDS011;26881;48.784;9.192;2023-09-18T15:47:59;3.22;;;2.70;;
41139;SDS011;26881;48.784;9.192;2023-09-18T15:53:22;3.05;;;1.40;;
41139;SDS011;26881;48.784;9.192;2023-09-18T15:58:44;2.70;;;1.20;;
41139;SDS011;26881;48.784;9.192;2023-09-18T16:04:06;1.67;;;1.10;;
41139;SDS011;26881;48.784;9.192;2023-09-18T16:09:28;2.40;;;0.90;;
41139;SDS011;26881;48.784;9.192;2023-09-18T16:14:50;2.28;;;1.15;;
41139;SDS011;26881;48.784;9.192;2023-09-18T16:20:12;2.00;;;1.08;;
41139;SDS011;26881;48.784;9.192;2023-09-18T16:25:35;1.98;;;1.10;;
41139;SDS011;26881;48.784;9.192;2023-09-18T16:30:57;2.17;;;1.30;;
41139;SDS011;26881;48.784;9.192;2023-09-18T16:36:26;1.85;;;0.85;;
41139;SDS011;26881;48.784;9.192;2023-09-18T16:41:48;2.03;;;1.33;;
41139;SDS011;26881;48.784;9.192;2023-09-18T16:47:11;3.42;;;1.20;;
41139;SDS011;26881;48.784;9.192;2023-09-18T16:52:32;3.90;;;1.15;;
41139;SDS011;26881;48.784;9.192;2023-09-18T16:57:55;4.63;;;1.20;;
41139;SDS011;26881;48.784;9.192;2023-09-18T17:03:17;2.70;;;1.30;;
41139;SDS011;26881;48.784;9.192;2023-09-18T17:08:39;3.58;;;1.20;;
41139;SDS011;26881;48.784;9.192;2023-09-18T17:14:01;1.10;;;1.00;;
41139;SDS011;26881;48.784;9.192;2023-09-18T17:19:23;1.65;;;1.30;;
41139;SDS011;26881;48.784;9.192;2023-09-18T17:24:44;3.58;;;1.58;;
41139;SDS011;26881;48.784;9.192;2023-09-18T17:30:07;3.40;;;1.50;;
41139;SDS011;26881;48.784;9.192;2023-09-18T17:35:30;2.25;;;1.35;;
41139;SDS011;26881;48.784;9.192;2023-09-18T17:40:54;1.63;;;1.52;;
41139;SDS011;26881;48.784;9.192;2023-09-18T17:46:16;2.97;;;1.20;;
41139;SDS011;26881;48.784;9.192;2023-09-18T17:51:38;2.65;;;1.55;;
41139;SDS011;26881;48.784;9.192;2023-09-18T17:57:00;2.42;;;1.35;;
41139;SDS011;26881;48.784;9.192;2023-09-18T18:02:22;1.95;;;1.40;;
41139;SDS011;26881;48.784;9.192;2023-09-18T18:07:44;3.22;;;1.30;;
41139;SDS011;26881;48.784;9.192;2023-09-18T18:13:06;1.92;;;1.25;;
41139;SDS011;26881;48.784;9.192;2023-09-18T18:18:28;3.53;;;1.40;;
41139;SDS011;26881;48.784;9.192;2023-09-18T18:23:50;3.78;;;1.90;;
41139;SDS011;26881;48.784;9.192;2023-09-18T18:29:13;4.05;;;1.90;;
41139;SDS011;26881;48.784;9.192;2023-09-18T18:34:36;2.13;;;1.55;;
41139;SDS011;26881;48.784;9.192;2023-09-18T18:39:58;2.83;;;1.75;;
41139;SDS011;26881;48.784;9.192;2023-09-18T18:45:19;3.50;;;1.48;;
41139;SDS011;26881;48.784;9.192;2023-09-18T18:50:44;6.15;;;1.80;;
41139;SDS011;26881;48.784;9.192;2023-09-18T18:56:06;7.03;;;2.00;;
41139;SDS011;26881;48.784;9.192;2023-09-18T19:01:28;5.95;;;1.85;;
41139;SDS011;26881;48.784;9.192;2023-09-18T19:06:52;3.05;;;1.60;;
41139;SDS011;26881;48.784;9.192;2023-09-18T19:12:16;3.50;;;1.60;;
41139;SDS011;26881;48.784;9.192;2023-09-18T19:17:37;2.88;;;1.30;;
41139;SDS011;26881;48.784;9.192;2023-09-18T19:22:59;2.90;;;1.48;;
41139;SDS011;26881;48.784;9.192;2023-09-18T19:28:22;2.95;;;1.95;;
41139;SDS011;26881;48.784;9.192;2023-09-18T19:33:44;2.88;;;1.30;;
41139;SDS011;26881;48.784;9.192;2023-09-18T19:39:07;2.13;;;1.33;;
41139;SDS011;26881;48.784;9.192;2023-09-18T19:44:29;2.17;;;1.20;;
41139;SDS011;26881;48.784;9.192;2023-09-18T19:49:51;3.40;;;1.30;;
41139;SDS011;26881;48.784;9.192;2023-09-18T19:55:13;2.13;;;1.20;;
41139;SDS011;26881;48.784;9.192;2023-09-18T20:00:35;2.90;;;1.05;;
41139;SDS011;26881;48.784;9.192;2023-09-18T20:05:58;0.80;;;0.70;;
41139;SDS011;26881;48.784;9.192;2023-09-18T20:11:30;2.35;;;0.93;;
41139;SDS011;26881;48.784;9.192;2023-09-18T20:16:52;2.17;;;1.13;;
41139;SDS011;26881;48.784;9.192;2023-09-18T20:22:14;5.15;;;0.95;;
41139;SDS011;26881;48.784;9.192;2023-09-18T20:27:36;0.90;;;0.77;;
41139;SDS011;26881;48.784;9.192;2023-09-18T20:33:03;1.17;;;0.73;;
41139;SDS011;26881;48.784;9.192;2023-09-18T20:38:25;1.58;;;0.80;;
41139;SDS011;26881;48.784;9.192;2023-09-18T20:43:47;0.80;;;0.80;;
41139;SDS011;26881;48.784;9.192;2023-09-18T20:49:09;1.17;;;0.90;;
41139;SDS011;26881;48.784;9.192;2023-09-18T20:54:31;2.15;;;1.05;;
41139;SDS011;26881;48.784;9.192;2023-09-18T20:59:53;0.98;;;0.80;;
41139;SDS011;26881;48.784;9.192;2023-09-18T21:05:16;1.75;;;0.70;;
41139;SDS011;26881;48.784;9.192;2023-09-18T21:10:38;1.50;;;0.60;;
41139;SDS011;26881;48.784;9.192;2023-09-18T21:16:00;0.93;;;0.70;;
41139;SDS011;26881;48.784;9.192;2023-09-18T21:21:24;1.73;;;0.80;;
41139;SDS011;26881;48.784;9.192;2023-09-18T21:26:46;3.70;;;0.80;;
41139;SDS011;26881;48.784;9.192;2023-09-18T21:32:08;1.63;;;0.77;;
41139;SDS011;26881;48.784;9.192;2023-09-18T21:37:31;1.17;;;0.70;;
41139;SDS011;26881;48.784;9.192;2023-09-18T21:42:53;2.05;;;0.82;;
41139;SDS011;26881;48.784;9.192;2023-09-18T21:48:15;1.33;;;0.77;;
41139;SDS011;26881;48.784;9.192;2023-09-18T21:53:37;0.73;;;0.68;;
41139;SDS011;26881;48.784;9.192;2023-09-18T21:59:02;0.88;;;0.70;;
41139;SDS011;26881;48.784;9.192;2023-09-18T22:04:26;1.52;;;0.93;;
41139;SDS011;26881;48.784;9.192;2023-09-18T22:09:48;1.05;;;0.82;;
41139;SDS011;26881;48.784;9.192;2023-09-18T22:15:13;1.50;;;0.70;;
41139;SDS011;26881;48.784;9.192;2023-09-18T22:20:36;0.98;;;0.82;;
41139;SDS011;26881;48.784;9.192;2023-09-18T22:25:59;1.55;;;0.80;;
41139;SDS011;26881;48.784;9.192;2023-09-18T22:31:24;1.35;;;0.82;;
41139;SDS011;26881;48.784;9.192;2023-09-18T22:36:46;2.78;;;0.90;;
41139;SDS011;26881;48.784;9.192;2023-09-18T22:58:57;1.75;;;0.80;;
41139;SDS011;26881;48.784;9.192;2023-09-18T23:04:19;1.05;;;0.80;;
41139;SDS011;26881;48.784;9.192;2023-09-18T23:09:41;1.10;;;0.95;;
41139;SDS011;26881;48.784;9.192;2023-09-18T23:15:03;2.25;;;0.85;;
41139;SDS011;26881;48.784;9.192;2023-09-18T23:20:33;1.13;;;0.80;;
41139;SDS011;26881;48.784;9.192;2023-09-18T23:25:57;2.45;;;0.90;;
41139;SDS011;26881;48.784;9.192;2023-09-18T23:31:20;1.60;;;0.98;;
41139;SDS011;26881;48.784;9.192;2023-09-18T23:36:42;4.13;;;1.00;;
41139;SDS011;26881;48.784;9.192;2023-09-18T23:42:04;2.10;;;0.80;;
41139;SDS011;26881;48.784;9.192;2023-09-18T23:47:26;2.15;;;1.23;;
41139;SDS011;26881;48.784;9.192;2023-09-18T23:52:48;1.73;;;1.00;;
41139;SDS011;26881;48.784;9.192;2023-09-18T23:58:13;1.10;;;1.00;;
